Time;durP1;ratioP1;P1;durP2;ratioP2;P2;SDS_P1;SDS_P2;PMS_P1;PMS_P2;Temp;Humidity;BMP_temperature;BMP_pressure;BME280_temperature;BME280_humidity;BME280_pressure;Samples;Min_cycle;Max_cycle;Signal;HPM_P1;HPM_P2
2022/01/22 00:01:34;;;;;;;;;;;-1.30;83.30;;;-2.79;79.18;96223.59;4071607;34;20202;-86
2022/01/22 00:04:03;;;;;;;;;;;-1.30;83.40;;;-2.79;79.69;96226.28;4093660;34;20228;-86
2022/01/22 00:06:31;;;;;;;;;;;-1.30;83.50;;;-2.79;79.16;96215.56;4071189;34;19910;-86
2022/01/22 00:09:01;;;;;;;;;;;-1.30;83.10;;;-2.80;79.49;96213.91;4070643;34;20303;-86
2022/01/22 00:11:35;;;;;;;;;;;-1.30;83.40;;;-2.83;80.11;96216.94;4071488;34;20090;-86
2022/01/22 00:16:50;;;;;;;;;;;-1.30;83.30;;;-2.81;79.51;96209.56;4093849;34;19903;-86
2022/01/22 00:19:18;;;;;;;;;;;-1.30;83.20;;;-2.81;79.08;96217.59;4072853;34;20193;-87
2022/01/22 00:21:47;;;;;;;;;;;-1.30;83.40;;;-2.81;79.22;96212.22;4096951;34;20242;-87
2022/01/22 00:24:17;;;;;;;;;;;-1.30;83.20;;;-2.84;nan;96206.41;4074023;34;20202;-86
2022/01/22 00:26:46;;;;;;;;;;;-1.30;83.20;;;-2.85;79.00;96207.44;4074432;34;19903;-86
2022/01/22 00:29:16;;;;;;;;;;;-1.30;83.30;;;-2.87;79.38;96218.31;4075696;34;19903;-86
2022/01/22 00:31:44;;;;;;;;;;;-1.30;83.40;;;-2.83;78.91;96216.94;4071937;34;20542;-86
2022/01/22 00:34:13;;;;;;;;;;;-1.30;83.40;;;-2.85;79.27;96220.81;4093781;34;19903;-87
2022/01/22 00:36:41;;;;;;;;;;;-1.30;83.40;;;-2.85;79.80;96224.31;4073011;34;20197;-87
2022/01/22 00:39:10;;;;;;;;;;;-1.30;83.50;;;-2.84;79.27;96217.13;4072829;34;19903;-86
2022/01/22 00:41:40;;;;;;;;;;;-1.30;83.40;;;-2.83;79.19;96224.13;4072490;34;20195;-87
2022/01/22 00:44:08;;;;;;;;;;;-1.40;83.30;;;-2.85;79.53;96221.66;4073073;34;19913;-86
2022/01/22 00:46:37;;;;;;;;;;;-1.30;83.40;;;-2.87;79.00;96207.59;4071601;34;20212;-87
2022/01/22 00:49:05;;;;;;;;;;;-1.40;83.30;;;-2.87;79.16;96210.28;4070304;34;19918;-87
2022/01/22 00:51:35;;;;;;;;;;;-1.40;83.20;;;-2.86;78.94;96209.25;4070310;34;20233;-87
2022/01/22 00:54:05;;;;;;;;;;;-1.40;82.90;;;-2.86;79.30;96203.91;4092035;34;20190;-87
2022/01/22 00:56:33;;;;;;;;;;;-1.40;83.20;;;-2.86;78.94;96203.91;4091945;34;20189;-86
2022/01/22 00:59:03;;;;;;;;;;;-1.40;83.00;;;-2.90;79.03;96186.53;4092514;34;19911;-86
2022/01/22 01:01:32;;;;;;;;;;;-1.40;83.20;;;-2.87;79.56;96188.03;4069719;34;19910;-85
2022/01/22 01:04:02;;;;;;;;;;;-1.40;83.20;;;-2.86;79.11;96176.31;4069605;34;20240;-86
2022/01/22 01:06:31;;;;;;;;;;;-1.40;83.00;;;-2.87;78.89;96185.34;4068822;34;20612;-86
2022/01/22 01:09:02;;;;;;;;;;;-1.40;83.10;;;-2.91;79.17;96178.69;4067398;34;19910;-86
2022/01/22 01:11:33;;;;;;;;;;;-1.40;82.80;;;-2.88;79.25;96191.72;4067550;34;20138;-86
2022/01/22 01:14:07;;;;;;;;;;;-1.40;83.20;;;-2.90;78.96;96194.56;4067262;34;20534;-87
2022/01/22 01:16:57;;;;;;;;;;;-1.40;83.20;;;-2.88;78.83;96203.25;4067018;34;20255;-87
2022/01/22 01:33:22;;;;;;;;;;;-1.40;83.20;;;-2.90;79.35;96196.44;4062720;34;19910;-87
2022/01/22 01:35:50;;;;;;;;;;;-1.40;83.10;;;-2.91;79.00;96192.94;4096136;34;20325;-86
2022/01/22 01:38:21;;;;;;;;;;;-1.40;83.10;;;-2.92;78.80;96188.59;4067821;34;20191;-86
2022/01/22 01:40:59;;;;;;;;;;;-1.40;82.90;;;-2.93;79.17;96182.38;4068488;34;20224;-87
2022/01/22 01:43:33;;;;;;;;;;;-1.40;83.00;;;-2.92;78.90;96177.88;4069241;34;19903;-86
2022/01/22 01:46:43;;;;;;;;;;;-1.40;83.10;;;-2.93;78.89;96178.88;3988481;34;20607;-86
2022/01/22 01:49:16;;;;;;;;;;;-1.40;83.10;;;-2.94;79.18;96174.56;4037850;34;20194;-86
2022/01/22 01:51:52;;;;;;;;;;;-1.40;83.10;;;-2.96;78.86;96166.69;4068621;34;20202;-86
2022/01/22 01:54:44;;;;;;;;;;;-1.40;83.00;;;-2.95;79.31;96170.22;4068291;34;20781;-86
2022/01/22 02:00:19;;;;;;;;;;;-1.40;83.00;;;-2.96;79.09;96165.88;4010126;34;19911;-86
2022/01/22 02:03:12;;;;;;;;;;;-1.40;83.00;;;-2.96;78.79;96166.69;4071970;34;20186;-86
2022/01/22 02:05:54;;;;;;;;;;;-1.40;83.10;;;-2.96;79.12;96165.88;4072237;34;20498;-86
2022/01/22 02:08:31;;;;;;;;;;;-1.50;83.10;;;-2.98;78.70;96158.03;4070760;34;20490;-86
2022/01/22 02:11:10;;;;;;;;;;;-1.50;82.90;;;-2.97;78.59;96156.16;4071010;34;19909;-85
2022/01/22 02:23:38;;;;;;;;;;;-1.50;82.60;;;-2.99;78.76;96144.81;4036980;34;19910;-86
2022/01/22 02:26:08;;;;;;;;;;;-1.50;82.70;;;-3.01;78.57;96146.84;4068445;34;19910;-86
2022/01/22 02:28:47;;;;;;;;;;;-1.50;82.70;;;-2.98;78.05;96146.47;4069286;34;19903;-86
2022/01/22 02:31:26;;;;;;;;;;;-1.50;82.50;;;-2.99;78.43;96144.81;4070859;34;20208;-86
2022/01/22 02:34:08;;;;;;;;;;;-1.50;83.60;;;-2.99;77.93;96152.84;4073471;34;19903;-86
2022/01/22 02:36:41;;;;;;;;;;;-1.50;82.50;;;-2.99;77.97;96156.38;4095243;34;20106;-86
2022/01/22 02:39:15;;;;;;;;;;;-1.50;82.20;;;-3.00;78.40;96138.63;4073626;34;20186;-86
2022/01/22 02:41:46;;;;;;;;;;;-1.50;82.00;;;-2.99;78.56;96134.09;4072304;34;20198;-86
2022/01/22 02:44:26;;;;;;;;;;;-1.50;82.50;;;-2.99;78.28;96139.44;4071268;34;19903;-86
2022/01/22 02:46:54;;;;;;;;;;;-1.50;82.50;;;-3.00;78.44;96124.38;4070095;34;20223;-86
2022/01/22 02:49:23;;;;;;;;;;;-1.50;82.50;;;-3.00;78.95;96125.25;4070763;34;19910;-86
2022/01/22 02:51:51;;;;;;;;;;;-1.50;82.70;;;-2.98;78.55;96122.38;4070834;34;19910;-86
2022/01/22 02:54:21;;;;;;;;;;;-1.50;82.80;;;-3.02;78.32;96107.69;4071502;34;20199;-86
2022/01/22 02:56:50;;;;;;;;;;;-1.50;82.60;;;-2.99;78.38;96115.34;4070951;34;20222;-86
2022/01/22 02:59:22;;;;;;;;;;;-1.50;82.60;;;-3.00;78.66;96106.50;4092575;34;19903;-87
2022/01/22 03:01:50;;;;;;;;;;;-1.50;82.70;;;-3.01;78.44;96114.69;4071047;34;20118;-87
2022/01/22 03:04:19;;;;;;;;;;;-1.50;82.70;;;-2.99;78.90;96123.38;4092993;34;20200;-86
2022/01/22 03:06:48;;;;;;;;;;;-1.50;82.80;;;-3.00;78.15;96129.75;4070732;34;19910;-87
2022/01/22 03:09:18;;;;;;;;;;;-1.50;82.70;;;-3.00;78.85;96124.38;4071348;34;20224;-86
2022/01/22 03:11:58;;;;;;;;;;;-1.50;82.70;;;-3.00;78.32;96127.91;4071133;34;20203;-86
2022/01/22 03:15:23;;;;;;;;;;;-1.50;82.40;;;-3.00;78.14;96125.25;4071047;34;20109;-86
2022/01/22 03:17:52;;;;;;;;;;;-1.50;82.50;;;-3.00;78.61;96127.06;4067764;34;20235;-87
2022/01/22 03:20:38;;;;;;;;;;;-1.50;82.40;;;-3.02;79.15;96135.31;4046573;34;19904;-86
2022/01/22 03:23:11;;;;;;;;;;;-1.50;82.80;;;-3.01;78.76;96120.91;4047281;34;20201;-86
2022/01/22 03:28:30;;;;;;;;;;;-1.50;82.70;;;-3.01;78.81;96125.41;4091664;34;20567;-86
2022/01/22 03:30:59;;;;;;;;;;;-1.50;82.90;;;-3.01;78.84;96126.25;4053237;34;19912;-86
2022/01/22 03:33:28;;;;;;;;;;;-1.50;82.80;;;-3.00;78.74;96116.34;4071547;34;19903;-86
2022/01/22 03:35:59;;;;;;;;;;;-1.50;83.00;;;-3.01;78.77;96120.06;4092449;34;19906;-87
2022/01/22 03:38:28;;;;;;;;;;;-1.50;83.00;;;-3.02;79.35;96115.72;4070401;34;19903;-86
2022/01/22 03:40:56;;;;;;;;;;;-1.50;82.60;;;-3.01;78.59;96117.38;4070876;34;20221;-86
2022/01/22 03:43:27;;;;;;;;;;;-1.50;82.80;;;-3.02;78.53;96108.53;4070694;34;20225;-86
2022/01/22 03:45:56;;;;;;;;;;;-1.50;82.80;;;-3.01;78.62;96103.97;4092277;34;19907;-86
2022/01/22 03:48:25;;;;;;;;;;;-1.50;82.80;;;-3.01;78.89;96095.94;4070066;34;20209;-86
2022/01/22 03:50:53;;;;;;;;;;;-1.50;82.80;;;-3.04;78.46;96082.97;4092427;34;19903;-86
2022/01/22 03:53:22;;;;;;;;;;;-1.50;82.70;;;-3.02;78.91;96092.47;4069133;34;19915;-86
2022/01/22 03:56:01;;;;;;;;;;;-1.50;82.60;;;-3.01;78.79;96095.94;4091581;34;20204;-86
2022/01/22 03:58:54;;;;;;;;;;;-1.50;82.90;;;-3.03;78.98;96093.47;4053382;34;20456;-86
2022/01/22 04:04:46;;;;;;;;;;;-1.50;83.10;;;-3.04;79.19;96085.63;4069773;34;20210;-86
2022/01/22 04:08:04;;;;;;;;;;;-1.50;83.00;;;-3.04;78.98;96089.13;4069344;34;20219;-86
2022/01/22 04:10:32;;;;;;;;;;;-1.50;83.00;;;-3.05;79.00;96092.00;4092059;34;19903;-86
2022/01/22 04:13:04;;;;;;;;;;;-1.60;82.80;;;-3.05;78.62;96092.81;4069721;34;20197;-86
2022/01/22 04:15:37;;;;;;;;;;;-1.50;82.50;;;-3.04;78.69;96097.16;4068362;34;20207;-87
2022/01/22 04:26:34;;;;;;;;;;;-1.60;82.70;;;-3.06;78.10;96090.34;4058236;34;20201;-86
2022/01/22 04:29:03;;;;;;;;;;;-1.60;82.20;;;-3.05;78.62;96086.66;4058237;34;20043;-86
2022/01/22 04:31:33;;;;;;;;;;;-1.50;82.60;;;-3.06;78.50;96085.81;4060349;34;20450;-86
2022/01/22 04:34:01;;;;;;;;;;;-1.60;82.80;;;-3.06;78.83;96079.63;4060924;34;20227;-86
2022/01/22 04:36:30;;;;;;;;;;;-1.60;82.80;;;-3.06;78.65;96085.00;4082246;34;19910;-86
2022/01/22 04:38:58;;;;;;;;;;;-1.60;82.80;;;-3.10;79.04;96090.72;4060071;34;20195;-86
2022/01/22 04:41:27;;;;;;;;;;;-1.60;82.90;;;-3.09;78.89;96089.69;4060055;34;19910;-86
2022/01/22 04:44:01;;;;;;;;;;;-1.60;82.70;;;-3.10;78.84;96088.03;4060255;34;20204;-86
2022/01/22 04:46:50;;;;;;;;;;;-1.60;82.70;;;-3.08;78.95;96098.53;4059024;34;20220;-87
2022/01/22 04:54:59;;;;;;;;;;;-1.60;82.70;;;-3.09;78.73;96095.06;4082622;34;19903;-86
2022/01/22 04:57:28;;;;;;;;;;;-1.60;82.70;;;-3.08;78.55;96085.16;4059251;34;20595;-86
2022/01/22 04:59:57;;;;;;;;;;;-1.60;82.70;;;-3.10;78.68;96093.38;4084225;34;19903;-86
2022/01/22 05:02:27;;;;;;;;;;;-1.60;82.80;;;-3.10;79.11;96096.06;4066755;34;20245;-86
2022/01/22 05:05:27;;;;;;;;;;;-1.60;82.80;;;-3.10;79.04;96100.59;4089348;34;20211;-86
2022/01/22 05:08:10;;;;;;;;;;;-1.60;82.80;;;-3.11;79.00;96096.25;4067423;34;20592;-86
2022/01/22 05:10:45;;;;;;;;;;;-1.60;82.80;;;-3.10;79.05;96100.59;4089913;34;20244;-86
2022/01/22 05:13:14;;;;;;;;;;;-1.60;82.90;;;-3.11;79.05;96089.06;4067481;34;20251;-86
2022/01/22 05:15:42;;;;;;;;;;;-1.60;82.70;;;-3.11;78.78;96102.44;4067134;34;20110;-86
2022/01/22 05:18:12;;;;;;;;;;;-1.60;82.60;;;-3.14;78.90;96102.81;4069043;34;20525;-86
2022/01/22 05:20:47;;;;;;;;;;;-1.60;82.60;;;-3.13;78.72;96098.28;4068725;34;20234;-86
2022/01/22 05:23:19;;;;;;;;;;;-1.60;82.80;;;-3.12;78.46;96103.44;4067485;34;20203;-85
2022/01/22 05:25:54;;;;;;;;;;;-1.60;82.50;;;-3.12;78.55;96095.41;4068529;34;20230;-86
2022/01/22 05:31:36;;;;;;;;;;;-1.60;82.60;;;-3.10;78.80;96108.63;4091260;34;19910;-87
2022/01/22 05:37:42;;;;;;;;;;;-1.60;82.50;;;-3.11;78.67;96115.81;4070408;34;20190;-86
2022/01/22 05:40:14;;;;;;;;;;;-1.60;82.70;;;-3.14;78.50;96110.84;4068635;34;19910;-86
2022/01/22 05:42:43;;;;;;;;;;;-1.60;82.60;;;-3.14;78.57;96121.53;4068495;34;19903;-86
2022/01/22 05:45:20;;;;;;;;;;;-1.60;82.50;;;-3.11;78.77;96121.19;4068452;34;20189;-86
2022/01/22 05:47:49;;;;;;;;;;;-1.60;82.70;;;-3.11;78.54;96115.81;4090519;34;19903;-86
2022/01/22 05:50:29;;;;;;;;;;;-1.60;82.50;;;-3.13;78.17;96112.50;4068325;34;20159;-86
2022/01/22 05:53:01;;;;;;;;;;;-1.60;82.30;;;-3.11;78.29;96110.47;4068163;34;20229;-86
2022/01/22 06:01:12;;;;;;;;;;;-1.60;82.50;;;-3.13;78.80;96109.81;4090651;34;20242;-85
2022/01/22 06:04:04;;;;;;;;;;;-1.60;82.50;;;-3.12;78.57;96108.81;4068017;34;20056;-86
2022/01/22 06:06:34;;;;;;;;;;;-1.60;82.40;;;-3.15;78.86;96108.34;4067556;34;20533;-86
2022/01/22 06:09:09;;;;;;;;;;;-1.60;82.60;;;-3.12;78.61;96119.53;4070348;34;20200;-86
2022/01/22 06:11:52;;;;;;;;;;;-1.60;82.50;;;-3.12;78.85;96119.53;4093644;34;19910;-84
2022/01/22 06:14:22;;;;;;;;;;;-1.60;82.70;;;-3.11;78.59;96115.00;4070926;34;20240;-86
2022/01/22 06:16:51;;;;;;;;;;;-1.60;82.40;;;-3.11;78.66;96115.00;4072292;34;20213;-85
2022/01/22 06:19:28;;;;;;;;;;;-1.60;82.50;;;-3.11;78.50;96105.13;4094553;34;20202;-85
2022/01/22 06:21:58;;;;;;;;;;;-1.60;82.50;;;-3.10;78.70;96114.00;4072280;34;20186;-84
2022/01/22 06:24:27;;;;;;;;;;;-1.60;82.50;;;-3.13;78.56;96106.31;4070645;34;20210;-85
2022/01/22 06:26:56;;;;;;;;;;;-1.60;82.80;;;-3.11;78.81;96104.28;4070312;34;19911;-85
2022/01/22 06:29:24;;;;;;;;;;;-1.60;82.80;;;-3.11;78.33;96099.75;4092905;34;20431;-86
2022/01/22 06:31:53;;;;;;;;;;;-1.60;82.50;;;-3.11;78.42;96093.59;4068542;34;20114;-85
2022/01/22 06:34:22;;;;;;;;;;;-1.60;82.70;;;-3.11;78.71;96088.22;4068862;34;20215;-85
2022/01/22 06:36:51;;;;;;;;;;;-1.60;82.60;;;-3.10;79.08;96090.72;4068312;34;20532;-84
2022/01/22 06:39:23;;;;;;;;;;;-1.60;82.70;;;-3.10;78.56;96100.59;4068979;34;19903;-85
2022/01/22 06:42:14;;;;;;;;;;;-1.60;82.40;;;-3.09;78.08;96102.25;4089712;34;19903;-85
2022/01/22 06:44:52;;;;;;;;;;;-1.60;82.40;;;-3.09;78.53;96099.56;4068528;34;19902;-85
2022/01/22 06:47:33;;;;;;;;;;;-1.60;82.60;;;-3.08;78.32;96098.53;4089359;33;20205;-85
2022/01/22 06:50:22;;;;;;;;;;;-1.60;82.60;;;-3.07;78.43;96102.88;4116705;34;19903;-84
2022/01/22 06:53:05;;;;;;;;;;;-1.60;82.50;;;-3.05;78.46;96100.03;4070355;34;20209;-85
2022/01/22 06:55:45;;;;;;;;;;;-1.50;82.50;;;-3.04;78.45;96101.69;4070834;34;19910;-85
2022/01/22 06:58:16;;;;;;;;;;;-1.60;82.30;;;-3.03;78.35;96100.69;4070577;34;20230;-85
2022/01/22 07:01:05;;;;;;;;;;;-1.60;82.30;;;-3.02;78.73;96103.16;4093950;34;20450;-85
2022/01/22 07:03:44;;;;;;;;;;;-1.50;82.50;;;-3.01;78.31;96103.97;4073624;34;20206;-85
2022/01/22 07:06:35;;;;;;;;;;;-1.50;82.30;;;-3.00;77.96;96103.81;4053460;34;20202;-85
2022/01/22 07:09:05;;;;;;;;;;;-1.50;82.20;;;-3.01;78.51;96104.84;4089413;34;19904;-85
2022/01/22 07:11:38;;;;;;;;;;;-1.50;82.30;;;-2.99;78.49;96107.31;4044850;34;20528;-86
2022/01/22 07:14:07;;;;;;;;;;;-1.50;82.40;;;-2.98;78.38;96103.63;4087438;34;20116;-85
2022/01/22 07:16:36;;;;;;;;;;;-1.50;82.30;;;-3.00;78.53;96105.66;4085580;34;20232;-85
2022/01/22 07:19:22;;;;;;;;;;;-1.50;82.20;;;-2.99;78.20;96104.63;4082617;34;19907;-85
2022/01/22 07:22:02;;;;;;;;;;;-1.40;82.20;;;-2.98;78.52;96106.28;4057181;34;19904;-85
2022/01/22 07:24:37;;;;;;;;;;;-1.50;82.40;;;-2.98;78.25;96108.97;4057377;34;20196;-85
2022/01/22 07:27:08;;;;;;;;;;;-1.50;82.40;;;-2.98;78.53;96098.25;4079596;34;20206;-85
2022/01/22 07:29:37;;;;;;;;;;;-1.50;82.30;;;-3.00;78.37;96109.16;4079013;34;20673;-85
2022/01/22 07:32:13;;;;;;;;;;;-1.50;82.40;;;-2.98;78.41;96109.81;4079127;34;20231;-85
2022/01/22 07:34:42;;;;;;;;;;;-1.50;82.10;;;-2.98;78.17;96117.00;4054402;34;20196;-85
2022/01/22 07:37:21;;;;;;;;;;;-1.40;82.20;;;-2.99;78.51;96123.38;4032143;34;20257;-85
2022/01/22 07:39:49;;;;;;;;;;;-1.50;82.30;;;-2.97;78.29;96132.06;4076476;34;19911;-85
2022/01/22 07:42:40;;;;;;;;;;;-1.50;82.20;;;-2.98;78.18;96127.72;4067502;34;20221;-85
2022/01/22 07:45:26;;;;;;;;;;;-1.50;82.30;;;-2.97;78.61;96130.19;4053598;34;19903;-85
2022/01/22 07:48:04;;;;;;;;;;;-1.40;82.40;;;-2.96;78.35;96123.00;4052751;34;19904;-85
2022/01/22 07:50:52;;;;;;;;;;;-1.50;82.20;;;-2.95;78.41;96119.31;4077910;34;19916;-85
2022/01/22 07:53:24;;;;;;;;;;;-1.40;82.20;;;-2.97;78.49;96122.16;4053528;34;19911;-86
2022/01/22 07:55:53;;;;;;;;;;;-1.50;82.20;;;-2.95;77.69;96119.31;4098742;33;20437;-86
2022/01/22 07:58:23;;;;;;;;;;;-1.50;82.10;;;-2.93;78.39;96111.94;4060230;34;19902;-85
2022/01/22 08:00:52;;;;;;;;;;;-1.40;82.20;;;-2.91;78.09;96109.91;4082489;34;20206;-86
2022/01/22 08:03:21;;;;;;;;;;;-1.40;82.20;;;-2.90;78.08;96111.53;4061278;34;20238;-86
2022/01/22 08:06:08;;;;;;;;;;;-1.40;82.20;;;-2.90;78.51;96110.72;4083168;34;19910;-85
2022/01/22 08:09:05;;;;;;;;;;;-1.40;82.30;;;-2.89;78.18;96115.88;3990131;34;20235;-85
2022/01/22 08:11:52;;;;;;;;;;;-1.40;82.20;;;-2.87;78.35;96127.22;4089743;34;19903;-86
2022/01/22 08:14:22;;;;;;;;;;;-1.40;82.20;;;-2.89;78.34;96118.56;4089666;34;20199;-86
2022/01/22 08:16:51;;;;;;;;;;;-1.40;82.30;;;-2.88;78.54;96119.41;4087958;34;20242;-85
2022/01/22 08:19:23;;;;;;;;;;;-1.40;82.20;;;-2.84;78.04;96126.88;4084254;34;20043;-86
2022/01/22 08:21:51;;;;;;;;;;;-1.30;82.10;;;-2.78;78.08;96130.63;4067591;34;20208;-85
2022/01/22 08:24:38;;;;;;;;;;;-1.30;82.10;;;-2.73;77.61;96132.75;4089741;34;20215;-85
2022/01/22 08:27:18;;;;;;;;;;;-1.20;81.70;;;-2.69;77.36;96128.69;4067074;34;20555;-86
2022/01/22 08:29:49;;;;;;;;;;;-1.20;81.40;;;-2.69;77.53;96124.13;4067063;34;19903;-86
2022/01/22 08:32:35;;;;;;;;;;;-1.20;81.20;;;-2.68;77.28;96130.34;4067102;34;20229;-85
2022/01/22 08:38:03;;;;;;;;;;;-1.20;80.90;;;-2.65;77.24;96135.34;3955344;34;20116;-86
2022/01/22 08:40:32;;;;;;;;;;;-1.20;80.90;;;-2.66;76.88;96131.00;4042180;34;20489;-85
2022/01/22 08:43:01;;;;;;;;;;;-1.10;80.90;;;-2.67;76.91;96132.00;4089730;34;19903;-85
2022/01/22 08:45:31;;;;;;;;;;;-1.10;80.90;;;-2.65;77.18;96135.34;4066988;33;20453;-85
2022/01/22 08:48:01;;;;;;;;;;;-1.20;80.80;;;-2.68;77.24;96131.16;4066751;34;20211;-85
2022/01/22 08:50:32;;;;;;;;;;;-1.10;80.90;;;-2.65;77.26;96129.97;4068424;34;20094;-86
2022/01/22 08:53:01;;;;;;;;;;;-1.20;80.80;;;-2.66;77.04;96144.41;4091698;34;19903;-85
2022/01/22 08:55:29;;;;;;;;;;;-1.10;80.80;;;-2.66;77.27;96141.72;4091730;33;20203;-86
2022/01/22 08:57:58;;;;;;;;;;;-1.20;80.80;;;-2.67;76.98;96126.66;4091605;34;19910;-85
2022/01/22 09:00:39;;;;;;;;;;;-1.10;80.90;;;-2.68;77.21;96125.81;4069213;34;19903;-85
2022/01/22 09:03:18;;;;;;;;;;;-1.20;80.70;;;-2.68;76.86;96119.63;4064903;34;20210;-85
2022/01/22 09:06:17;;;;;;;;;;;-1.20;80.60;;;-2.69;77.22;96129.50;3971383;34;20222;-86
2022/01/22 09:08:49;;;;;;;;;;;-1.20;80.70;;;-2.69;77.03;96123.31;4064404;34;19903;-86
2022/01/22 09:11:22;;;;;;;;;;;-1.20;80.70;;;-2.66;77.40;96120.28;4041969;34;20195;-85
2022/01/22 09:14:04;;;;;;;;;;;-1.20;81.00;;;-2.63;77.39;96119.88;4064099;34;20767;-85
2022/01/22 09:16:42;;;;;;;;;;;-1.20;81.20;;;-2.58;77.46;96114.78;4064421;34;20111;-86
2022/01/22 09:19:12;;;;;;;;;;;-1.10;81.20;;;-2.55;77.16;96110.88;4064903;34;20217;-85
2022/01/22 09:21:46;;;;;;;;;;;-1.10;81.10;;;-2.55;77.34;96110.88;4065395;34;20536;-85
2022/01/22 09:24:16;;;;;;;;;;;-1.00;80.90;;;-2.55;76.92;96109.06;4062475;34;20049;-85
2022/01/22 09:26:46;;;;;;;;;;;-1.10;80.70;;;-2.52;76.78;96118.56;4040235;34;20227;-85
2022/01/22 09:29:15;;;;;;;;;;;-1.00;80.70;;;-2.53;76.92;96112.38;4062213;34;20245;-86
2022/01/22 09:31:46;;;;;;;;;;;-1.00;80.50;;;-2.53;76.79;96117.75;4040875;34;19915;-86
2022/01/22 09:34:24;;;;;;;;;;;-1.00;80.60;;;-2.53;76.96;96107.03;4062160;34;20206;-86
2022/01/22 09:37:10;;;;;;;;;;;-1.00;80.50;;;-2.52;76.79;96103.28;4042124;34;19904;-85
2022/01/22 09:39:58;;;;;;;;;;;-1.00;80.50;;;-2.49;76.84;96100.25;4087243;34;19914;-86
2022/01/22 09:42:48;;;;;;;;;;;-1.00;80.40;;;-2.49;76.79;96092.19;4065082;34;20227;-86
2022/01/22 09:45:33;;;;;;;;;;;-0.90;80.50;;;-2.47;76.77;96095.53;4042345;34;20212;-86
2022/01/22 09:48:26;;;;;;;;;;;-0.90;80.50;;;-2.45;76.74;96097.19;4046397;34;19914;-86
2022/01/22 09:51:16;;;;;;;;;;;-1.00;80.30;;;-2.44;76.71;96096.97;4065847;34;19903;-85
2022/01/22 09:54:07;;;;;;;;;;;-0.90;80.40;;;-2.40;76.90;96094.78;4082937;34;20583;-85
2022/01/22 09:56:57;;;;;;;;;;;-0.90;80.30;;;-2.41;76.63;96079.69;4115625;33;20203;-86
2022/01/22 09:59:45;;;;;;;;;;;-0.80;80.20;;;-2.41;76.27;96083.19;4115998;34;20107;-86
2022/01/22 10:02:26;;;;;;;;;;;-0.80;80.20;;;-2.38;76.57;96087.34;4068443;34;20204;-85
2022/01/22 10:04:56;;;;;;;;;;;-0.80;80.20;;;-2.38;76.46;96093.53;4088448;34;20229;-85
2022/01/22 10:08:27;;;;;;;;;;;-0.90;80.20;;;-2.42;76.76;96086.09;4003114;35;20197;-85
2022/01/22 10:11:19;;;;;;;;;;;-0.90;80.10;;;-2.43;76.57;96090.59;3980895;35;19912;-86
2022/01/22 10:14:07;;;;;;;;;;;-0.90;80.20;;;-2.47;76.56;96090.16;4083252;34;19926;-85
2022/01/22 10:16:36;;;;;;;;;;;-0.90;80.20;;;-2.48;76.34;96088.50;4110250;33;19903;-85
2022/01/22 10:19:14;;;;;;;;;;;-0.90;80.30;;;-2.50;76.54;96090.53;4087713;34;19906;-86
2022/01/22 10:21:46;;;;;;;;;;;-1.00;80.20;;;-2.51;76.75;96091.56;4086984;34;20191;-86
2022/01/22 10:24:37;;;;;;;;;;;-1.00;80.30;;;-2.53;76.94;96090.09;4064758;34;20225;-86
2022/01/22 10:27:26;;;;;;;;;;;-1.00;80.40;;;-2.54;76.95;96089.28;4064851;34;20186;-86
2022/01/22 10:29:57;;;;;;;;;;;-1.00;80.40;;;-2.55;77.14;96087.63;4065051;34;20249;-86
2022/01/22 10:32:37;;;;;;;;;;;-1.00;80.40;;;-2.58;76.66;96082.63;4065130;34;19905;-86
2022/01/22 10:35:25;;;;;;;;;;;-1.00;80.50;;;-2.56;76.91;96083.28;4086931;34;19925;-86
2022/01/22 10:38:15;;;;;;;;;;;-1.00;80.40;;;-2.55;76.90;96076.91;4086733;34;20222;-86
2022/01/22 10:40:43;;;;;;;;;;;-1.00;80.40;;;-2.56;76.66;96083.28;4087071;34;20215;-86
2022/01/22 10:43:20;;;;;;;;;;;-1.10;80.40;;;-2.58;76.77;96079.94;4066790;34;20237;-86
2022/01/22 10:46:10;;;;;;;;;;;-1.10;80.50;;;-2.62;76.79;96068.78;4066850;34;20551;-86
2022/01/22 10:48:44;;;;;;;;;;;-1.00;80.50;;;-2.59;76.89;96080.16;4069660;34;19911;-86
2022/01/22 10:51:13;;;;;;;;;;;-1.10;80.50;;;-2.62;76.78;96070.63;4067437;34;20242;-86
2022/01/22 10:53:47;;;;;;;;;;;-1.10;80.50;;;-2.62;76.80;96070.63;4066194;34;19911;-86
2022/01/22 10:56:22;;;;;;;;;;;-1.10;80.60;;;-2.63;77.16;96068.97;4089668;34;19915;-86
2022/01/22 10:59:05;;;;;;;;;;;-1.10;80.70;;;-2.63;77.08;96063.59;4092649;34;20824;-86
2022/01/22 11:02:00;;;;;;;;;;;-1.10;80.60;;;-2.64;76.67;96078.00;4069129;34;19925;-86
2022/01/22 11:04:40;;;;;;;;;;;-1.10;80.70;;;-2.66;77.02;96078.22;4064755;34;20199;-86
2022/01/22 11:07:18;;;;;;;;;;;-1.10;80.80;;;-2.64;76.78;96065.47;4066682;34;19903;-86
2022/01/22 11:09:51;;;;;;;;;;;-1.10;80.80;;;-2.66;76.98;96070.19;4067162;34;19903;-86
2022/01/22 11:12:29;;;;;;;;;;;-1.10;80.80;;;-2.66;77.01;96064.00;4088970;34;19903;-86
2022/01/22 11:15:06;;;;;;;;;;;-1.10;80.80;;;-2.64;76.75;96070.81;4090938;34;20222;-87
2022/01/22 11:17:40;;;;;;;;;;;-1.10;80.80;;;-2.65;76.99;96069.16;4039901;34;19914;-86
2022/01/22 11:20:15;;;;;;;;;;;-1.10;80.80;;;-2.65;77.18;96071.03;4062389;34;20210;-86
2022/01/22 11:22:48;;;;;;;;;;;-1.10;80.70;;;-2.66;76.87;96064.81;4084282;34;19903;-85
2022/01/22 11:25:19;;;;;;;;;;;-1.10;80.70;;;-2.67;76.92;96062.34;4061820;34;20207;-85
2022/01/22 11:27:52;;;;;;;;;;;-1.10;81.60;;;-2.69;76.95;96048.31;4059892;34;19938;-86
2022/01/22 11:30:25;;;;;;;;;;;-1.10;80.80;;;-2.68;77.28;96056.13;4057536;34;19911;-87
2022/01/22 11:33:06;;;;;;;;;;;-1.10;80.90;;;-2.68;77.22;96056.13;4058992;34;19903;-86
2022/01/22 11:35:45;;;;;;;;;;;-1.10;80.90;;;-2.67;76.92;96059.66;4057922;33;19910;-86
2022/01/22 11:38:28;;;;;;;;;;;-1.10;80.90;;;-2.68;77.10;96056.13;4081036;34;19903;-86
2022/01/22 11:41:12;;;;;;;;;;;-1.10;81.00;;;-2.68;77.56;96066.03;4058999;34;19911;-87
2022/01/22 11:44:08;;;;;;;;;;;-1.10;80.90;;;-2.68;76.71;96055.31;4059222;34;19907;-86
2022/01/22 11:46:52;;;;;;;;;;;-1.20;80.80;;;-2.69;77.11;96067.06;4058767;34;20204;-87
2022/01/22 11:49:25;;;;;;;;;;;-1.20;80.70;;;-2.69;77.16;96056.34;4060741;34;19903;-86
2022/01/22 11:52:17;;;;;;;;;;;-1.20;80.80;;;-2.71;77.11;96053.00;4083277;34;20188;-85
2022/01/22 11:54:51;;;;;;;;;;;-1.20;80.80;;;-2.70;76.97;96057.34;4082963;34;19918;-85
2022/01/22 11:57:21;;;;;;;;;;;-1.20;80.50;;;-2.71;77.11;96050.34;4105896;33;20110;-86
2022/01/22 11:59:50;;;;;;;;;;;-1.20;80.70;;;-2.68;76.82;96060.69;4106724;34;20199;-86
2022/01/22 12:02:19;;;;;;;;;;;-1.20;80.50;;;-2.69;77.14;96059.03;4060150;34;19910;-86
2022/01/22 12:04:53;;;;;;;;;;;-1.20;80.60;;;-2.70;77.14;96052.00;4082757;34;20199;-87
2022/01/22 12:07:25;;;;;;;;;;;-1.20;80.50;;;-2.69;76.67;96053.66;4081807;34;20208;-86
2022/01/22 12:10:18;;;;;;;;;;;-1.10;80.70;;;-2.66;77.19;96053.28;4083437;34;20244;-86
2022/01/22 12:15:51;;;;;;;;;;;-1.10;80.80;;;-2.63;77.36;96048.38;3982559;34;20217;-86
2022/01/22 12:18:30;;;;;;;;;;;-1.10;80.80;;;-2.61;76.91;96050.84;3982084;34;20623;-86
2022/01/22 12:23:57;;;;;;;;;;;-1.10;80.70;;;-2.61;76.66;96048.16;4061876;34;19910;-87
2022/01/22 12:26:49;;;;;;;;;;;-1.10;80.70;;;-2.60;76.77;96051.69;4113331;33;20094;-87
2022/01/22 12:29:42;;;;;;;;;;;-1.10;80.70;;;-2.59;77.09;96053.34;4090379;34;20577;-86
2022/01/22 12:32:37;;;;;;;;;;;-1.10;80.70;;;-2.60;76.95;96055.19;4066604;34;19907;-86
2022/01/22 12:35:17;;;;;;;;;;;-1.10;80.60;;;-2.59;77.10;96054.16;4066896;34;19903;-86
2022/01/22 12:38:01;;;;;;;;;;;-1.10;80.60;;;-2.62;76.81;96049.19;4088632;34;19949;-86
2022/01/22 12:40:34;;;;;;;;;;;-1.00;80.50;;;-2.59;76.96;96051.50;4066524;34;20623;-86
2022/01/22 12:43:08;;;;;;;;;;;-1.00;80.50;;;-2.59;76.64;96054.16;4066575;34;19903;-86
2022/01/22 12:45:41;;;;;;;;;;;-1.00;80.40;;;-2.60;76.95;96052.50;4085085;34;20224;-86
2022/01/22 12:48:12;;;;;;;;;;;-1.10;80.40;;;-2.61;76.70;96061.56;4060217;34;19910;-85
2022/01/22 12:50:41;;;;;;;;;;;-1.10;80.30;;;-2.63;76.98;96059.09;4060082;34;20118;-85
2022/01/22 12:53:12;;;;;;;;;;;-1.10;80.40;;;-2.64;77.06;96067.28;4083275;34;20219;-85
2022/01/22 12:58:39;;;;;;;;;;;-1.10;80.50;;;-2.68;76.53;96082.13;4060794;34;20242;-86
2022/01/22 13:01:17;;;;;;;;;;;-1.10;80.50;;;-2.70;76.85;96078.78;4058375;34;20201;-86
2022/01/22 13:03:47;;;;;;;;;;;-1.20;80.40;;;-2.72;76.61;96086.19;4079370;34;19903;-86
2022/01/22 13:06:15;;;;;;;;;;;-1.20;80.50;;;-2.74;76.80;96090.91;4054981;34;19911;-86
2022/01/22 13:09:03;;;;;;;;;;;-1.20;80.50;;;-2.75;77.13;96091.91;4077687;34;19903;-86
2022/01/22 13:11:44;;;;;;;;;;;-1.20;80.60;;;-2.78;77.43;96085.94;4055459;34;20222;-86